createdAt,value
2023-04-19T00:00:14.935Z,100008.94
2023-04-19T00:02:43.346Z,100013.25
2023-04-19T00:05:11.971Z,99991.00
2023-04-19T00:07:41.260Z,99974.78
2023-04-19T00:10:10.123Z,99983.41
2023-04-19T00:12:37.983Z,99980.03
2023-04-19T00:15:06.809Z,99969.75
2023-04-19T00:17:34.713Z,99973.22
2023-04-19T00:20:02.946Z,99953.59
2023-04-19T00:22:30.763Z,99944.25
2023-04-19T00:25:00.027Z,99937.44
2023-04-19T00:27:27.798Z,99927.22
2023-04-19T00:29:55.568Z,99924.69
2023-04-19T00:32:23.425Z,99921.28
2023-04-19T00:34:51.882Z,99917.94
2023-04-19T00:37:19.698Z,99911.06
2023-04-19T00:39:47.466Z,99894.00
2023-04-19T00:42:16.624Z,99888.13
2023-04-19T00:44:47.258Z,99882.16
2023-04-19T00:47:16.858Z,99873.66
2023-04-19T00:49:46.496Z,99864.28
2023-04-19T00:52:14.272Z,99852.31
2023-04-19T00:54:44.686Z,99848.91
2023-04-19T00:57:16.575Z,99837.91
2023-04-19T00:59:44.459Z,99828.56
2023-04-19T01:02:12.358Z,99826.84
2023-04-19T01:04:40.140Z,99819.19
2023-04-19T01:07:08.020Z,99820.88
2023-04-19T01:09:35.888Z,99815.78
2023-04-19T01:12:04.207Z,99813.28
2023-04-19T01:14:33.360Z,99799.63
2023-04-19T01:17:01.180Z,99805.63
2023-04-19T01:19:29.009Z,99793.66
2023-04-19T01:21:58.361Z,99786.84
2023-04-19T01:24:28.235Z,99780.09
2023-04-19T01:26:56.285Z,99773.28
2023-04-19T01:29:24.157Z,99762.19
2023-04-19T01:31:53.703Z,99752.00
2023-04-19T01:34:23.124Z,99739.25
2023-04-19T01:36:51.304Z,99730.78
2023-04-19T01:39:19.137Z,99723.97
2023-04-19T01:41:48.294Z,99715.47
2023-04-19T01:44:16.290Z,99707.81
2023-04-19T01:46:44.371Z,99698.41
2023-04-19T01:49:13.729Z,99694.22
2023-04-19T01:51:43.756Z,99683.19
2023-04-19T01:54:11.496Z,99673.84
2023-04-19T01:56:39.264Z,99669.59
2023-04-19T01:59:08.397Z,99653.41
2023-04-19T02:01:36.149Z,99647.50
2023-04-19T02:04:04.138Z,99635.59
2023-04-19T02:06:32.784Z,99622.88
2023-04-19T02:09:00.548Z,99609.25
2023-04-19T02:11:29.003Z,99590.53
2023-04-19T02:13:56.815Z,99587.16
2023-04-19T02:16:25.994Z,99582.97
2023-04-19T02:18:53.830Z,99565.94
2023-04-19T02:21:21.659Z,99548.09
2023-04-19T02:23:49.467Z,99537.94
2023-04-19T02:26:17.345Z,99510.78
2023-04-19T02:28:45.141Z,99493.72
2023-04-19T02:31:13.948Z,99485.34
2023-04-19T02:33:43.111Z,99466.63
2023-04-19T02:36:12.088Z,99456.47
2023-04-19T02:38:39.891Z,99430.94
2023-04-19T02:41:07.726Z,99422.47
2023-04-19T02:43:38.777Z,99402.06
2023-04-19T02:46:06.894Z,99381.72
2023-04-19T02:48:34.696Z,99359.69
2023-04-19T02:51:03.849Z,99330.84
2023-04-19T02:53:31.721Z,99308.78
2023-04-19T02:55:59.467Z,99280.00
2023-04-19T02:58:28.030Z,99251.22
2023-04-19T03:01:03.701Z,99216.47
2023-04-19T03:03:31.867Z,99190.13
2023-04-19T03:05:59.820Z,99169.00
2023-04-19T03:08:30.352Z,99133.34
2023-04-19T03:10:58.086Z,99110.56
2023-04-19T03:13:25.965Z,99065.59
2023-04-19T03:15:53.763Z,99044.53
2023-04-19T03:18:23.692Z,99018.28
2023-04-19T03:20:53.392Z,98986.84
2023-04-19T03:23:21.780Z,98970.84
2023-04-19T03:25:52.317Z,98947.13
2023-04-19T03:28:26.942Z,98914.94
2023-04-19T03:31:22.613Z,98871.78
2023-04-19T03:33:52.128Z,98855.00
2023-04-19T03:36:22.962Z,98829.59
2023-04-19T03:38:51.372Z,98800.81
2023-04-19T03:41:23.786Z,98772.06
2023-04-19T03:44:11.811Z,98748.41
2023-04-19T03:46:43.212Z,98724.81
2023-04-19T03:49:11.405Z,98699.44
2023-04-19T03:51:40.436Z,98663.84
2023-04-19T03:54:08.518Z,98644.50
2023-04-19T03:56:37.682Z,98624.22
2023-04-19T03:59:05.476Z,98596.38
2023-04-19T04:01:35.587Z,98570.09
2023-04-19T04:04:05.171Z,98563.34
2023-04-19T04:06:33.602Z,98548.19
2023-04-19T04:09:02.426Z,98528.81
2023-04-19T04:11:30.217Z,98511.16
2023-04-19T04:14:00.174Z,98490.00
2023-04-19T04:16:31.841Z,98475.72
2023-04-19T04:18:59.884Z,98452.03
2023-04-19T04:21:29.367Z,98430.91
2023-04-19T04:24:01.956Z,98425.06
2023-04-19T04:26:46.652Z,98396.34
2023-04-19T04:29:21.706Z,98368.47
2023-04-19T04:31:51.789Z,98353.34
2023-04-19T04:34:24.571Z,98344.88
2023-04-19T04:36:58.516Z,98334.72
2023-04-19T04:39:26.360Z,98319.53
2023-04-19T04:41:54.187Z,98321.38
2023-04-19T04:44:23.487Z,98306.94
2023-04-19T04:46:51.708Z,98290.91
2023-04-19T04:49:25.457Z,98287.53
2023-04-19T04:51:53.305Z,98280.78
2023-04-19T04:54:22.881Z,98277.47
2023-04-19T04:56:51.074Z,98271.53
2023-04-19T04:59:19.006Z,98267.41
2023-04-19T05:01:51.170Z,98257.22
2023-04-19T05:04:20.115Z,98261.47
2023-04-19T05:06:47.902Z,98250.44
2023-04-19T05:09:21.996Z,98252.19
2023-04-19T05:11:51.197Z,98242.09
2023-04-19T05:14:18.998Z,98231.13
2023-04-19T05:16:46.927Z,98231.13
2023-04-19T05:19:16.213Z,98220.13
2023-04-19T05:21:49.855Z,98215.16
2023-04-19T05:24:18.491Z,98206.66
2023-04-19T05:26:47.468Z,98196.50
2023-04-19T05:29:15.827Z,98192.28
2023-04-19T05:31:52.936Z,98204.22
2023-04-19T05:34:28.964Z,98207.56
2023-04-19T05:36:58.249Z,98204.19
2023-04-19T05:39:26.729Z,98205.00
2023-04-19T05:41:54.478Z,98210.13
2023-04-19T05:44:22.285Z,98211.75
2023-04-19T05:46:50.212Z,98218.47
2023-04-19T05:49:33.541Z,98237.88
2023-04-19T05:52:15.765Z,98272.44
2023-04-19T05:54:50.329Z,98298.56
2023-04-19T05:57:18.083Z,98313.69
2023-04-19T05:59:45.977Z,98326.31
2023-04-19T06:02:16.949Z,98364.31
2023-04-19T06:04:46.917Z,98394.69
2023-04-19T06:07:27.281Z,98418.28
2023-04-19T06:09:58.494Z,98447.81
2023-04-19T06:12:26.572Z,98474.88
2023-04-19T06:14:54.578Z,98490.84
2023-04-19T06:17:24.463Z,98500.97
2023-04-19T06:19:53.860Z,98506.84
2023-04-19T06:22:22.115Z,98526.31
2023-04-19T06:24:50.176Z,98529.63
2023-04-19T06:27:18.160Z,98546.50
2023-04-19T06:29:45.898Z,98564.25
2023-04-19T06:32:13.742Z,98588.75
2023-04-19T06:34:41.502Z,98592.09
2023-04-19T06:37:10.630Z,98590.44
2023-04-19T06:39:38.361Z,98593.00
2023-04-19T06:42:06.349Z,98597.13
2023-04-19T06:44:34.647Z,98605.66
2023-04-19T06:47:02.627Z,98616.59
2023-04-19T06:49:30.440Z,98617.44
2023-04-19T06:51:59.315Z,98639.47
2023-04-19T06:54:28.547Z,98652.09
2023-04-19T06:56:57.928Z,98684.25
2023-04-19T06:59:28.184Z,98703.66
2023-04-19T07:01:57.355Z,98722.28
2023-04-19T07:04:26.270Z,98739.13
2023-04-19T07:06:54.256Z,98759.44
2023-04-19T07:09:22.052Z,98772.94
2023-04-19T07:11:51.328Z,98788.16
2023-04-19T07:14:19.509Z,98824.53
2023-04-19T07:16:49.011Z,98846.47
2023-04-19T07:19:19.201Z,98871.03
2023-04-19T07:21:46.998Z,98902.31
2023-04-19T07:24:15.169Z,98934.50
2023-04-19T07:26:43.245Z,98953.13
2023-04-19T07:29:15.427Z,98966.69
2023-04-19T07:31:43.205Z,98985.28
2023-04-19T07:34:11.012Z,99003.88
2023-04-19T07:36:39.093Z,99011.47
2023-04-19T07:39:06.862Z,99040.31
2023-04-19T07:41:36.131Z,99064.84
2023-04-19T07:44:04.330Z,99089.38
2023-04-19T07:46:33.453Z,99122.41
2023-04-19T07:49:01.286Z,99149.53
2023-04-19T07:51:29.085Z,99169.00
2023-04-19T07:53:56.826Z,99183.38
2023-04-19T07:56:26.382Z,99203.78
2023-04-19T07:59:06.759Z,99214.75
2023-04-19T08:01:37.439Z,99224.94
2023-04-19T08:04:05.567Z,99243.56
2023-04-19T08:06:33.587Z,99279.22
2023-04-19T08:09:01.448Z,99302.88
2023-04-19T08:11:29.199Z,99346.19
2023-04-19T08:14:26.131Z,99394.56
2023-04-19T08:19:16.706Z,99492.94
2023-04-19T08:21:44.491Z,99545.56
2023-04-19T08:24:12.239Z,99591.44
2023-04-19T08:26:40.162Z,99637.41
2023-04-19T08:29:08.105Z,99690.03
2023-04-19T08:31:35.885Z,99734.16
2023-04-19T08:34:05.028Z,99796.31
2023-04-19T08:36:41.180Z,99835.38
2023-04-19T08:39:28.874Z,99873.66
2023-04-19T08:42:06.934Z,99919.59
2023-04-19T08:44:45.318Z,99971.50
2023-04-19T08:47:30.297Z,100022.59
2023-04-19T08:50:13.838Z,100078.81
2023-04-19T08:52:56.119Z,100142.69
2023-04-19T08:55:28.743Z,100200.63
2023-04-19T08:57:57.989Z,100251.78
2023-04-19T09:00:26.062Z,100305.50
2023-04-19T09:02:56.121Z,100380.56
2023-04-19T09:05:25.713Z,100431.78
2023-04-19T09:07:53.808Z,100473.63
2023-04-19T09:10:22.517Z,100508.66
2023-04-19T09:13:03.923Z,100523.97
2023-04-19T09:15:39.763Z,100548.75
2023-04-19T09:18:09.797Z,100594.91
2023-04-19T09:20:40.564Z,100659.81
2023-04-19T09:23:12.605Z,100723.94
2023-04-19T09:26:05.824Z,100727.31
2023-04-19T09:28:29.193Z,100738.41
2023-04-19T09:31:05.656Z,100786.31
2023-04-19T09:33:39.867Z,100800.81
2023-04-19T09:36:10.226Z,100815.31
2023-04-19T09:38:48.936Z,100811.09
2023-04-19T09:41:18.328Z,100793.09
2023-04-19T09:44:05.642Z,100793.09
2023-04-19T09:46:36.055Z,100811.09
2023-04-19T09:49:27.879Z,100846.13
2023-04-19T09:52:14.547Z,100902.59
2023-04-19T09:54:42.945Z,100941.94
2023-04-19T09:57:11.048Z,100976.19
2023-04-19T09:59:38.857Z,100965.88
2023-04-19T10:02:07.549Z,100971.84
2023-04-19T10:04:56.946Z,100994.16
2023-04-19T10:07:30.546Z,101018.13
2023-04-19T10:10:11.863Z,101034.38
2023-04-19T10:13:07.579Z,101066.91
2023-04-19T10:15:47.184Z,101097.78
2023-04-19T10:18:19.519Z,101084.03
2023-04-19T10:20:52.983Z,101089.19
2023-04-19T10:23:23.494Z,101099.44
2023-04-19T10:25:56.860Z,101116.59
2023-04-19T10:28:24.823Z,101132.00
2023-04-19T10:30:58.301Z,101112.25
2023-04-19T10:33:28.031Z,101140.50
2023-04-19T10:35:57.678Z,101132.78
2023-04-19T10:38:41.525Z,101118.28
2023-04-19T10:41:16.995Z,101143.91
2023-04-19T10:43:47.933Z,101186.81
2023-04-19T10:46:36.911Z,101213.38
2023-04-19T10:49:07.741Z,101235.63
2023-04-19T10:51:37.300Z,101250.25
2023-04-19T10:54:07.175Z,101256.22
2023-04-19T10:57:05.261Z,101303.38
2023-04-19T10:59:34.464Z,101347.13
2023-04-19T11:02:03.555Z,101376.22
2023-04-19T11:05:00.597Z,101369.41
2023-04-19T11:07:28.526Z,101370.25
2023-04-19T11:09:57.636Z,101334.25
2023-04-19T11:12:25.383Z,101302.44
2023-04-19T11:14:54.811Z,101299.88
2023-04-19T11:17:25.930Z,101319.59
2023-04-19T11:19:58.948Z,101367.66
2023-04-19T11:22:31.163Z,101400.22
2023-04-19T11:25:06.688Z,101457.75
2023-04-19T11:27:35.341Z,101500.66
2023-04-19T11:30:05.400Z,101536.75
2023-04-19T11:32:33.513Z,101571.09
2023-04-19T11:35:06.758Z,101555.59
2023-04-19T11:37:36.364Z,101545.28
2023-04-19T11:40:07.706Z,101561.59
2023-04-19T11:42:35.950Z,101626.13
2023-04-19T11:45:05.184Z,101603.69
2023-04-19T11:47:35.378Z,101607.97
2023-04-19T11:50:34.698Z,101577.91
2023-04-19T11:53:12.436Z,101584.78
2023-04-19T11:55:43.605Z,101607.16
2023-04-19T11:58:24.366Z,101583.03
2023-04-19T12:00:52.585Z,101543.50
2023-04-19T12:03:25.694Z,101552.13
2023-04-19T12:05:56.074Z,101490.22
2023-04-19T12:08:35.389Z,101485.94
2023-04-19T12:11:05.766Z,101519.41
2023-04-19T12:13:34.190Z,101558.94
2023-04-19T12:16:02.447Z,101610.44
2023-04-19T12:18:44.451Z,101657.72
2023-04-19T12:21:12.861Z,101703.28
2023-04-19T12:23:40.604Z,101729.91
2023-04-19T12:26:09.703Z,101733.34
2023-04-19T12:28:37.548Z,101733.34
2023-04-19T12:31:06.045Z,101783.22
2023-04-19T12:33:33.801Z,101828.81
2023-04-19T12:36:01.609Z,101889.84
2023-04-19T12:38:29.418Z,101966.50
2023-04-19T12:40:57.213Z,102001.78
2023-04-19T12:43:26.448Z,102057.78
2023-04-19T12:45:54.299Z,102115.44
2023-04-19T12:48:22.149Z,102130.94
2023-04-19T12:50:49.918Z,102129.22
2023-04-19T12:53:17.740Z,102194.75
2023-04-19T12:55:47.633Z,102207.66
2023-04-19T12:58:15.769Z,102185.22
2023-04-19T13:00:45.451Z,102128.31
2023-04-19T13:03:13.657Z,102034.41
2023-04-19T13:05:41.536Z,101891.47
2023-04-19T13:08:09.344Z,101795.13
2023-04-19T13:10:37.135Z,101752.09
2023-04-19T13:13:05.031Z,101705.63
2023-04-19T13:15:32.796Z,101757.22
2023-04-19T13:18:02.019Z,101792.50
2023-04-19T13:20:29.923Z,101754.63
2023-04-19T13:22:57.718Z,101717.63
2023-04-19T13:25:25.545Z,101785.53
2023-04-19T13:27:53.342Z,101896.53
2023-04-19T13:30:21.162Z,101986.97
2023-04-19T13:32:49.023Z,101988.66
2023-04-19T13:35:18.211Z,102059.28
2023-04-19T13:37:47.480Z,102104.09
2023-04-19T13:40:19.352Z,102086.78
2023-04-19T13:42:47.682Z,102011.88
2023-04-19T13:45:15.550Z,101902.50
2023-04-19T13:47:43.456Z,101804.44
2023-04-19T13:50:12.843Z,101697.72
2023-04-19T13:52:42.056Z,101758.78
2023-04-19T13:55:10.498Z,101866.31
2023-04-19T13:57:38.231Z,101998.94
2023-04-19T14:00:08.338Z,102128.13
2023-04-19T14:02:36.592Z,102251.34
2023-04-19T14:05:05.057Z,102322.09
2023-04-19T14:07:33.509Z,102380.75
2023-04-19T14:10:02.874Z,102360.03
2023-04-19T14:12:30.595Z,102309.94
2023-04-19T14:14:58.385Z,102297.00
2023-04-19T14:17:26.371Z,102242.66
2023-04-19T14:19:54.328Z,102242.69
2023-04-19T14:22:22.238Z,102284.09
2023-04-19T14:24:49.961Z,102316.81
2023-04-19T14:27:19.239Z,102399.69
2023-04-19T14:29:47.063Z,102485.16
2023-04-19T14:34:46.208Z,102507.56
2023-04-19T14:37:13.983Z,102426.47
2023-04-19T14:39:41.740Z,102352.16
2023-04-19T14:42:09.517Z,102291.75
2023-04-19T14:44:38.730Z,102269.34
2023-04-19T14:47:06.563Z,102236.53
2023-04-19T14:49:34.414Z,102152.94
2023-04-19T14:52:03.735Z,102070.16
2023-04-19T14:54:31.659Z,101964.28
2023-04-19T14:56:59.471Z,101873.81
2023-04-19T14:59:29.773Z,101804.09
2023-04-19T15:01:59.175Z,101716.34
2023-04-19T15:04:27.129Z,101645.00
2023-04-19T15:06:54.950Z,101584.84
2023-04-19T15:09:22.750Z,101565.03
2023-04-19T15:11:50.499Z,101632.88
2023-04-19T15:14:19.709Z,101685.31
2023-04-19T15:16:47.537Z,101712.00
2023-04-19T15:19:16.841Z,101724.88
2023-04-19T15:21:44.813Z,101757.56
2023-04-19T15:24:12.566Z,101774.72
2023-04-19T15:26:42.110Z,101833.22
2023-04-19T15:29:11.408Z,101808.28
2023-04-19T15:31:39.308Z,101746.31
2023-04-19T15:34:07.330Z,101689.53
2023-04-19T15:36:36.498Z,101614.75
2023-04-19T15:39:04.389Z,101550.34
2023-04-19T15:41:32.140Z,101473.03
2023-04-19T15:43:59.935Z,101413.81
2023-04-19T15:46:27.734Z,101401.75
2023-04-19T15:48:55.533Z,101450.66
2023-04-19T15:51:23.345Z,101480.72
2023-04-19T15:53:52.420Z,101475.59
2023-04-19T15:56:20.199Z,101432.59
2023-04-19T15:58:47.976Z,101373.41
2023-04-19T16:01:17.044Z,101362.19
2023-04-19T16:03:46.916Z,101380.22
2023-04-19T16:06:14.905Z,101337.34
2023-04-19T16:08:42.658Z,101287.44
2023-04-19T16:11:11.770Z,101280.63
2023-04-19T16:13:39.592Z,101248.00
2023-04-19T16:16:08.042Z,101198.22
2023-04-19T16:18:35.898Z,101169.16
2023-04-19T16:21:04.470Z,101116.84
2023-04-19T16:23:32.213Z,101085.09
2023-04-19T16:25:59.993Z,101056.84
2023-04-19T16:28:29.210Z,101022.56
2023-04-19T16:30:57.028Z,100984.03
2023-04-19T16:33:24.828Z,100931.78
2023-04-19T16:35:52.608Z,100907.00
2023-04-19T16:38:20.388Z,100856.50
2023-04-19T16:40:48.630Z,100824.78
2023-04-19T16:43:16.468Z,100814.53
2023-04-19T16:45:45.651Z,100805.97
2023-04-19T16:48:13.727Z,100804.22
2023-04-19T16:50:41.547Z,100799.91
2023-04-19T16:53:09.309Z,100802.53
2023-04-19T16:55:37.723Z,100768.31
2023-04-19T16:58:05.556Z,100730.63
2023-04-19T17:00:33.809Z,100692.94
2023-04-19T17:03:03.135Z,100668.19
2023-04-19T17:05:31.013Z,100650.22
2023-04-19T17:07:58.795Z,100618.63
2023-04-19T17:10:27.677Z,100589.47
2023-04-19T17:12:56.357Z,100579.25
2023-04-19T17:15:24.357Z,100560.47
2023-04-19T17:17:52.186Z,100529.72
2023-04-19T17:20:21.453Z,100484.41
2023-04-19T17:22:49.197Z,100466.53
2023-04-19T17:25:16.937Z,100439.16
2023-04-19T17:27:44.714Z,100426.44
2023-04-19T17:30:13.251Z,100396.44
2023-04-19T17:32:41.691Z,100381.13
2023-04-19T17:35:10.386Z,100355.50
2023-04-19T17:37:39.481Z,100341.88
2023-04-19T17:40:09.078Z,100319.69
2023-04-19T17:42:36.901Z,100283.81
2023-04-19T17:45:06.486Z,100254.84
2023-04-19T17:47:34.375Z,100210.47
2023-04-19T17:50:07.372Z,100183.19
2023-04-19T17:52:35.277Z,100167.81
2023-04-19T17:55:05.583Z,100138.03
2023-04-19T17:57:34.054Z,100126.94
2023-04-19T18:00:06.176Z,100109.88
2023-04-19T18:02:37.075Z,100099.63
2023-04-19T18:05:05.575Z,100099.66
2023-04-19T18:07:33.396Z,100089.41
2023-04-19T18:10:01.208Z,100078.31
2023-04-19T18:12:30.370Z,100071.53
2023-04-19T18:14:58.158Z,100045.91
2023-04-19T18:17:26.120Z,100033.16
2023-04-19T18:19:53.950Z,100011.00
2023-04-19T18:22:21.818Z,99988.84
2023-04-19T18:24:51.176Z,99952.13
2023-04-19T18:27:21.748Z,99930.97
2023-04-19T18:29:52.916Z,99917.34
2023-04-19T18:32:21.788Z,99887.50
2023-04-19T18:34:49.751Z,99876.47
2023-04-19T18:37:18.432Z,99862.91
2023-04-19T18:39:48.119Z,99844.97
2023-04-19T18:42:15.879Z,99824.63
2023-04-19T18:44:53.656Z,99805.06
2023-04-19T18:47:23.893Z,99796.56
2023-04-19T18:50:02.807Z,99784.63
2023-04-19T18:52:31.101Z,99766.72
2023-04-19T18:54:58.892Z,99761.63
2023-04-19T18:57:27.688Z,99754.84
2023-04-19T18:59:56.744Z,99758.25
2023-04-19T19:02:27.424Z,99754.84
2023-04-19T19:05:00.993Z,99730.13
2023-04-19T19:10:02.492Z,99696.94
2023-04-19T19:12:33.574Z,99688.53
2023-04-19T19:15:01.344Z,99666.34
2023-04-19T19:17:30.648Z,99650.22
2023-04-19T19:19:58.441Z,99636.59
2023-04-19T19:22:28.785Z,99623.03
2023-04-19T19:24:57.053Z,99603.44
2023-04-19T19:27:25.184Z,99589.84
2023-04-19T19:29:53.033Z,99578.00
2023-04-19T19:32:20.838Z,99565.31
2023-04-19T19:34:56.349Z,99538.00
2023-04-19T19:37:28.650Z,99520.19
2023-04-19T19:39:56.873Z,99510.00
2023-04-19T19:42:25.647Z,99503.25
2023-04-19T19:44:54.831Z,99485.34
2023-04-19T19:47:22.762Z,99472.63
2023-04-19T19:52:22.961Z,99450.59
2023-04-19T19:54:50.831Z,99443.78
2023-04-19T19:58:14.105Z,99431.91
2023-04-19T20:00:28.042Z,99414.91
2023-04-19T20:02:59.483Z,99404.75
2023-04-19T20:05:29.231Z,99399.66
2023-04-19T20:08:08.118Z,99382.69
2023-04-19T20:10:36.465Z,99379.28
2023-04-19T20:13:06.132Z,99373.31
2023-04-19T20:15:34.353Z,99358.88
2023-04-19T20:18:02.235Z,99356.38
2023-04-19T20:20:31.510Z,99341.91
2023-04-19T20:22:59.265Z,99340.22
2023-04-19T20:25:27.084Z,99332.56
2023-04-19T20:27:55.196Z,99324.88
2023-04-19T20:30:23.136Z,99313.00
2023-04-19T20:32:51.047Z,99302.06
2023-04-19T20:35:18.938Z,99272.31
2023-04-19T20:37:48.392Z,99265.63
2023-04-19T20:40:16.634Z,99234.13
2023-04-19T20:42:44.940Z,99217.16
2023-04-19T20:45:14.205Z,99201.94
2023-04-19T20:47:42.797Z,99180.72
2023-04-19T20:50:11.598Z,99175.72
2023-04-19T20:52:39.468Z,99156.19
2023-04-19T20:55:09.848Z,99146.94
2023-04-19T20:57:37.656Z,99122.28
2023-04-19T21:00:08.097Z,99090.09
2023-04-19T21:02:36.123Z,99039.31
2023-04-19T21:05:04.141Z,98992.69
2023-04-19T21:07:31.907Z,98952.94
2023-04-19T21:09:59.711Z,98915.72
2023-04-19T21:12:29.230Z,98890.38
2023-04-19T21:14:57.092Z,98863.25
2023-04-19T21:17:25.010Z,98842.97
2023-04-19T21:19:52.797Z,98820.97
2023-04-19T21:22:20.554Z,98796.50
2023-04-19T21:24:48.308Z,98769.41
2023-04-19T21:27:16.178Z,98749.97
2023-04-19T21:29:45.408Z,98711.97
2023-04-19T21:32:13.259Z,98687.47
2023-04-19T21:34:41.237Z,98641.00
2023-04-19T21:37:09.026Z,98608.00
2023-04-19T21:39:36.790Z,98585.13
2023-04-19T21:42:04.673Z,98572.56
2023-04-19T21:44:32.544Z,98549.78
2023-04-19T21:47:02.177Z,98522.75
2023-04-19T21:49:30.028Z,98492.34
2023-04-19T21:51:58.105Z,98478.06
2023-04-19T21:54:33.374Z,98454.38
2023-04-19T21:57:02.856Z,98444.38
2023-04-19T21:59:31.385Z,98432.50
2023-04-19T22:02:01.192Z,98410.56
2023-04-19T22:06:36.389Z,98361.63
2023-04-19T22:09:05.621Z,98337.97
2023-04-19T22:11:34.012Z,98315.28
2023-04-19T22:14:02.401Z,98294.16
2023-04-19T22:16:32.794Z,98285.81
2023-04-19T22:19:01.295Z,98255.38
2023-04-19T22:21:30.808Z,98241.91
2023-04-19T22:23:59.909Z,98224.28
2023-04-19T22:26:27.961Z,98215.00
2023-04-19T22:28:55.813Z,98204.09
2023-04-19T22:31:23.652Z,98191.38
2023-04-19T22:33:51.554Z,98183.00
2023-04-19T22:36:19.329Z,98162.78
2023-04-19T22:38:47.177Z,98151.00
2023-04-19T22:41:16.682Z,98138.38
2023-04-19T22:43:44.514Z,98135.03
2023-04-19T22:46:13.045Z,98130.00
2023-04-19T22:48:40.859Z,98124.97
2023-04-19T22:51:08.698Z,98120.69
2023-04-19T22:53:37.853Z,98113.09
2023-04-19T22:56:06.265Z,98108.06
2023-04-19T22:58:35.414Z,98109.75
